Morristown, NY (13664)

4:48 AM EST on February 10, 2016 (GMT -0500)
APRSWXNET | | Change Station
CLOSE
Current Station
Personal Weather Station
Location: Morristown, NY
Elevation: 283 ft
Nearby Weather Stations

Elev 283 ft 44.54 °N, 75.57 °W | Updated 33 minutes ago

Snow
Snow
20 °F
Feels Like 20 °F
N
1
Wind Variable Wind from ENE
Gusts 4.0 mph

Today
High -- | Low -- °F
--% Chance of Precip.
Yesterday
High -- | Low -- °F
Precip. -- in
Pressure 29.46 in
Visibility 10.0 miles
Clouds Few 2000 ft
Overcast 3200 ft
Windchill 20 °F
Dew Point 17 °F
Humidity 89%
Rainfall in
Snow Depth Not available.
7:10 AM 5:23 PM
Waxing Crescent, 4% visible
SPECI KGTB 100941Z AUTO 16001KT 10SM UP FEW020 OVC032 M03/M04 A2946 RMK AO2 UPE26UPB41
Pressure 29.46 in
Visibility 10.0 miles
Clouds Few 2000 ft
Overcast 3200 ft
Windchill 20 °F
Dew Point 17 °F
Humidity 89%
Rainfall in
Snow Depth Not available.
7:10 AM 5:23 PM
Waxing Crescent, 4% visible
SPECI KGTB 100941Z AUTO 16001KT 10SM UP FEW020 OVC032 M03/M04 A2946 RMK AO2 UPE26UPB41

10-Day Weather Forecast

Almanac

Astronomy

Feb. 10, 2016 Rise Set
Actual Time
Civil Twilight
Nautical Twilight
Astronomical Twilight
Moon
Length of Visible Light
Length of Day
Tomorrow will be .
, % of the Moon is Illuminated

Today's Extremes

State Highs State Lows

Community

WunderPhotos

Upload Photos

1,891,826 photos uploaded!

WunderBlog® & News

Nearby

Air Quality

  Air Quality AQ Index Pollutant
Not available.

Snow Depth

Station Depth Elevation

Earthquake Activity

City Distance Mag. Time & Date
Minimum magnitude displayed is 2.5.

Coastal Water Temperatures

Place Temperature

Stations

Nearby Weather Stations

Station Location Temp. Windchill Dew Point Humidity Wind Precip. Elev Updated Type
                   

Watches & Warnings

There are currently no watches in effect.